M I D A S
Marine Information and Data Acquisition System
Tripno 946 of the Zeeleeuw from 2005-07-14 07:46:47 to 2005-07-14 12:55:17
Back to CruiseResearch ActivitiesStationsMapUnderway DataData graphs

EquipmentUnitsComment
TimeDGPSUTC
LatitudeDGPSDM.mWGS84
LongitudeDGPSDM.mWGS84
TemperatureSBE03/SBE38deg celciusITS90
ConductivitySBE21S/mITS90
SalinitySBE21 Practical Salinity Units
ChlorophylAChelsea fluorimeterg/lCalibrated in Aceton
Missing or incorrect values are displayed as -999
Sea surface data collected by the RV Zeeleeuw from 2005-07-14 07:48:16 to 2005-07-14 13:05:42
Time Latitude Longitude Temperature Conductivity Salinity ChlorophylA
2005-07-14 07:49:23 51°13.613 2°56.053 21.9915 0.01848 0.093226 -0.511574
2005-07-14 07:50:22 51°13.639 2°55.966 22.0105 0.018583 0.093735 -0.511574
2005-07-14 07:51:23 51°13.675 2°55.868 22.0072 0.01848 0.09324 -0.511574
2005-07-14 07:52:23 51°13.697 2°55.777 22.0208 0.01848 0.093247 -0.477864
2005-07-14 07:53:22 51°13.704 2°55.755 21.9883 0.01848 0.093253 -0.511574
2005-07-14 07:54:22 51°13.708 2°55.745 22.058 0.01848 0.093259 -0.545283
2005-07-14 07:55:22 51°13.77 2°55.698 21.9592 0.01848 0.093265 -0.511574
2005-07-14 07:56:22 51°13.875 2°55.595 21.925 0.01848 0.093271 -0.511574
2005-07-14 07:57:22 51°14.004 2°55.505 21.9764 0.01848 0.093277 -0.477864
2005-07-14 07:58:22 51°14.137 2°55.415 22.0261 0.01848 0.093283 -0.511574
2005-07-14 07:59:22 51°14.254 2°55.28 22.041 0.01848 0.093288 -0.511574
2005-07-14 08:00:22 51°14.355 2°55.069 22.0117 0.01848 0.093293 -0.511574
2005-07-14 08:01:22 51°14.424 2°54.784 22.0222 0.01848 0.093298 -0.511574
2005-07-14 08:02:22 51°14.419 2°54.466 22.0046 0.01848 0.093301 -0.511574
2005-07-14 08:03:22 51°14.361 2°54.154 21.9721 0.01848 0.093308 -0.511574
2005-07-14 08:04:22 51°14.273 2°53.871 22.0027 0.01848 0.093313 -0.511574
2005-07-14 08:05:22 51°14.181 2°53.591 22.0011 0.01848 0.093319 -0.511574
2005-07-14 08:06:22 51°14.076 2°53.302 22.0097 0.01848 0.093325 -0.511574
2005-07-14 08:07:22 51°13.966 2°52.997 21.9941 0.01848 0.093332 -0.511574
2005-07-14 08:08:22 51°13.849 2°52.693 22.009 0.01848 0.093339 -0.545283
2005-07-14 08:09:22 51°13.736 2°52.392 22.0249 0.01848 0.093347 -0.477864
2005-07-14 08:10:22 51°13.621 2°52.088 22.0096 0.01848 0.093354 -0.511574
2005-07-14 08:11:22 51°13.506 2°51.781 22.0417 0.01848 0.093362 -0.511574
2005-07-14 08:12:22 51°13.393 2°51.478 22.0059 0.01848 0.093369 -0.511574
2005-07-14 08:13:22 51°13.278 2°51.171 22.0362 0.01848 0.093378 -0.511574
2005-07-14 08:14:22 51°13.166 2°50.867 19.1562 2.551581 17.361286 3.162751
2005-07-14 08:15:22 51°13.052 2°50.559 19.1212 4.156292 30.341515 5.859503
2005-07-14 08:16:22 51°12.938 2°50.25 19.0695 4.18571 30.622873 5.185315
2005-07-14 08:17:22 51°12.825 2°49.946 19.0589 4.17348 30.564938 4.848221
2005-07-14 08:18:22 51°12.712 2°49.64 19.0571 4.175166 30.567718 4.679674
2005-07-14 08:19:22 51°12.597 2°49.33 19.0513 4.174112 30.559111 5.252734
2005-07-14 08:20:22 51°12.482 2°49.018 19.0353 4.200893 30.781005 5.421281
2005-07-14 08:21:22 51°12.369 2°48.712 19.017 4.201948 30.810731 5.252734
2005-07-14 08:22:22 51°12.254 2°48.401 19.01 4.21302 30.914545 4.511127
2005-07-14 08:23:22 51°12.14 2°48.094 18.9843 4.222404 31.003074 4.544836
2005-07-14 08:24:22 51°12.023 2°47.78 18.9706 4.229575 31.080485 4.88193
2005-07-14 08:25:22 51°11.909 2°47.469 18.967 4.234847 31.122646 4.949349
2005-07-14 08:26:22 51°11.811 2°47.143 18.9604 4.246446 31.228507 5.387571
2005-07-14 08:27:22 51°11.712 2°46.815 18.9471 4.242018 31.196989 5.117896
2005-07-14 08:28:22 51°11.623 2°46.48 18.9095 4.261104 31.373626 5.252734
2005-07-14 08:29:23 51°11.535 2°46.141 18.8968 4.272914 31.493455 5.4887
2005-07-14 08:30:22 51°11.447 2°45.807 18.8728 4.284514 31.598161 5.45499
2005-07-14 08:31:23 51°11.359 2°45.466 18.8562 4.279874 31.577365 5.556118
2005-07-14 08:32:22 51°11.273 2°45.129 18.8342 4.289787 31.67049 5.4887
2005-07-14 08:33:23 51°11.185 2°44.786 18.8205 4.279031 31.600917 5.320153
2005-07-14 08:34:23 51°11.097 2°44.444 18.8215 4.321001 31.955499 5.792084
2005-07-14 08:35:22 51°11.01 2°44.106 18.8008 4.32427 31.983608 5.252734
2005-07-14 08:36:23 51°10.921 2°43.763 18.7817 4.334394 32.077784 6.432563
2005-07-14 08:37:22 51°10.832 2°43.43 18.8378 4.348419 32.193216 6.331435
2005-07-14 08:38:23 51°10.742 2°43.092 18.7888 4.364659 32.30416 6.803366
2005-07-14 08:39:22 51°10.66 2°42.752 18.7859 4.373835 32.419231 6.735947
2005-07-14 08:40:22 51°10.578 2°42.405 18.7065 4.378053 32.463718 8.185452
2005-07-14 08:41:22 51°10.495 2°42.059 18.6501 4.397459 32.678861 7.646101
2005-07-14 08:42:22 51°10.415 2°41.712 18.6656 4.401889 32.760518 7.848358
2005-07-14 08:43:22 51°10.342 2°41.364 18.6661 4.412962 32.829317 8.016905
2005-07-14 08:44:22 51°10.255 2°41.025 18.6794 4.414228 32.843833 7.646101
2005-07-14 08:45:23 51°10.155 2°40.691 18.6656 4.413384 32.823718 8.320289
2005-07-14 08:46:23 51°10.057 2°40.357 18.646 4.41929 32.89166 9.39899
2005-07-14 08:47:22 51°9.962 2°40.023 18.655 4.424669 32.953585 10.241725
2005-07-14 08:48:22 51°9.866 2°39.685 18.695 4.41813 32.879723 9.803503
2005-07-14 08:49:23 51°9.769 2°39.343 18.7048 4.409904 32.785683 11.826067
2005-07-14 08:50:23 51°9.675 2°39.002 18.6837 4.408955 32.78177 13.140734
2005-07-14 08:51:22 51°9.607 2°38.649 18.6541 4.418763 32.879285 13.680084
2005-07-14 08:52:23 51°9.536 2°38.288 18.6244 4.428993 32.986167 15.63523
2005-07-14 08:53:22 51°9.466 2°37.932 18.6075 4.435216 33.05924 15.298136
2005-07-14 08:54:23 51°9.358 2°37.601 18.609 4.448716 33.186809 17.792631
2005-07-14 08:55:22 51°9.239 2°37.311 18.528 4.465064 33.32617 17.017315
2005-07-14 08:56:22 51°9.162 2°37.156 18.5281 4.470971 33.430152 15.534101
2005-07-14 08:57:22 51°9.155 2°37.135 18.5075 4.477299 33.473774 14.758785
2005-07-14 08:58:22 51°9.157 2°37.131 18.4966 4.47962 33.526478 14.48911
2005-07-14 08:59:22 51°9.159 2°37.123 18.4807 4.480147 33.535574 14.657657
2005-07-14 09:00:22 51°9.163 2°37.112 18.4703 4.47519 33.502817 16.107161
2005-07-14 09:01:22 51°9.165 2°37.098 18.4652 4.479093 33.543707 18.062306
2005-07-14 09:02:21 51°9.168 2°37.083 18.4606 4.478882 33.547794 18.062306
2005-07-14 09:03:22 51°9.17 2°37.066 18.4557 4.479409 33.556315 19.275845
2005-07-14 09:04:22 51°9.171 2°37.048 18.4483 4.479304 33.557775 19.242136
2005-07-14 09:05:23 51°9.172 2°37.028 18.4487 4.478988 33.560982 20.421965
2005-07-14 09:06:22 51°9.172 2°37.008 18.4456 4.478355 33.556847 20.995024
2005-07-14 09:07:23 51°9.172 2°36.986 18.4438 4.478038 33.555366 20.893896
2005-07-14 09:08:22 51°9.172 2°36.964 18.4433 4.478144 33.556836 21.028734
2005-07-14 09:09:22 51°9.172 2°36.942 18.4445 4.478144 33.55625 21.332118
2005-07-14 09:10:21 51°9.171 2°36.919 18.4478 4.478038 33.552436 21.635503
2005-07-14 09:11:21 51°9.169 2°36.896 18.448 4.47846 33.553044 21.871469
2005-07-14 09:12:22 51°9.167 2°36.872 18.4466 4.478671 33.555398 21.197281
2005-07-14 09:13:22 51°9.165 2°36.848 18.4494 4.477722 33.550369 22.579366
2005-07-14 09:14:22 51°9.163 2°36.824 18.4564 4.477195 33.543603 23.017589
2005-07-14 09:15:22 51°9.161 2°36.8 18.4503 4.477089 33.542719 22.747913
2005-07-14 09:16:22 51°9.158 2°36.777 18.4537 4.477616 33.545969 22.714204
2005-07-14 09:17:22 51°9.155 2°36.753 18.4471 4.478249 33.553619 23.017589
2005-07-14 09:18:22 51°9.151 2°36.73 18.4618 4.478355 33.556847 21.534375
2005-07-14 09:19:22 51°9.148 2°36.707 18.4773 4.479198 33.549275 22.680494
2005-07-14 09:20:22 51°9.144 2°36.684 18.485 4.479198 33.537567 22.781623
2005-07-14 09:21:23 51°9.14 2°36.66 18.5269 4.479831 33.52883 22.410819
2005-07-14 09:22:22 51°9.134 2°36.642 18.5363 4.48099 33.51225 21.298409
2005-07-14 09:23:22 51°9.132 2°36.677 18.561 4.48331 33.515905 21.871469
2005-07-14 09:24:22 51°9.153 2°36.742 18.6201 4.483205 33.501022 20.253418
2005-07-14 09:25:22 51°9.156 2°36.825 18.5589 4.484681 33.487145 18.129725
2005-07-14 09:26:22 51°9.147 2°36.906 18.5188 4.480568 33.498213 17.657794
2005-07-14 09:27:22 51°9.134 2°36.982 18.555 4.476033 33.478931 14.48911
2005-07-14 09:28:22 51°9.128 2°37.055 18.6547 4.472447 33.405261 14.253144
2005-07-14 09:29:22 51°9.128 2°37.126 18.7177 4.470019 33.30677 12.500255
2005-07-14 09:30:22 51°9.126 2°37.197 18.6661 4.467277 33.255063 11.11817
2005-07-14 09:31:22 51°9.122 2°37.268 18.6337 4.46443 33.272873 9.163024
2005-07-14 09:32:22 51°9.117 2°37.338 18.6523 4.461372 33.265271 10.073178
2005-07-14 09:33:22 51°9.117 2°37.409 18.7103 4.454938 33.189128 11.522683
2005-07-14 09:34:22 51°9.122 2°37.48 18.7414 4.448714 33.087901 11.556392
2005-07-14 09:35:22 51°9.133 2°37.548 18.8504 4.43648 32.968439 11.219298
2005-07-14 09:36:22 51°9.145 2°37.618 18.8194 4.43806 32.894494 10.578819
2005-07-14 09:37:22 51°9.153 2°37.689 18.742 4.435846 32.927845 9.500118
2005-07-14 09:38:22 51°9.161 2°37.76 18.7596 4.430258 32.922997 9.870922
2005-07-14 09:39:22 51°9.171 2°37.831 18.7906 4.4253 32.854504 12.567674
2005-07-14 09:40:22 51°9.179 2°37.902 18.8122 4.430151 32.874886 11.556392
2005-07-14 09:41:22 51°9.187 2°37.974 18.8057 4.424456 32.816854 10.915913
2005-07-14 09:42:22 51°9.198 2°38.045 18.828 4.419605 32.782849 9.837212
2005-07-14 09:43:22 51°9.212 2°38.113 18.8909 4.415597 32.721345 9.668665
2005-07-14 09:44:22 51°9.23 2°38.18 18.8788 4.416229 32.684846 9.331571
2005-07-14 09:45:22 51°9.245 2°38.249 18.8258 4.420448 32.739507 8.623674
2005-07-14 09:46:22 51°9.26 2°38.319 18.8304 4.423929 32.805679 8.792221
2005-07-14 09:47:22 51°9.276 2°38.39 18.8591 4.421819 32.772342 8.724802
2005-07-14 09:48:22 51°9.29 2°38.46 18.868 4.418655 32.726918 8.85964
2005-07-14 09:49:22 51°9.305 2°38.529 18.8681 4.414331 32.685474 8.994477
2005-07-14 09:50:22 51°9.318 2°38.598 18.8623 4.410639 32.658296 9.331571
2005-07-14 09:51:22 51°9.333 2°38.667 18.8773 4.406527 32.627063 9.500118
2005-07-14 09:52:22 51°9.347 2°38.733 18.8933 4.402624 32.579032 8.994477
2005-07-14 09:53:22 51°9.362 2°38.799 18.9113 4.402413 32.561011 9.803503
2005-07-14 09:54:22 51°9.376 2°38.866 19.0218 4.400936 32.539275 9.533828
2005-07-14 09:55:22 51°9.39 2°38.933 19.0162 4.406208 32.50396 9.938341
2005-07-14 09:56:22 51°9.407 2°38.998 19.1676 4.405364 32.491424 9.466409
2005-07-14 09:57:22 51°9.421 2°39.062 19.2034 4.370982 32.081011 8.85964
2005-07-14 09:58:22 51°9.435 2°39.127 19.1505 4.35664 31.965607 7.376426
2005-07-14 09:59:22 51°9.449 2°39.191 19.1322 4.348098 31.931054 8.85964
2005-07-14 10:00:22 51°9.463 2°39.255 19.1182 4.346517 31.928453 8.994477
2005-07-14 10:01:22 51°9.478 2°39.32 19.1122 4.346728 31.940568 9.4327
2005-07-14 10:02:22 51°9.492 2°39.383 19.1035 4.343459 31.913188 7.073042
2005-07-14 10:03:22 51°9.507 2°39.448 19.0923 4.345357 31.944626 7.106751
2005-07-14 10:04:22 51°9.522 2°39.515 19.0869 4.342615 31.925938 6.769657
2005-07-14 10:05:22 51°9.537 2°39.582 19.087 4.342404 31.928034 6.634819
2005-07-14 10:06:22 51°9.552 2°39.65 19.0499 4.343459 31.941073 6.162888
2005-07-14 10:07:22 51°9.567 2°39.716 19.0519 4.347467 31.996475 6.668529
2005-07-14 10:08:22 51°9.582 2°39.783 19.0463 4.346623 31.986248 7.005623
2005-07-14 10:09:22 51°9.596 2°39.851 19.0324 4.349787 32.021593 6.769657
2005-07-14 10:10:21 51°9.61 2°39.918 18.998 4.351791 32.049068 6.5674
2005-07-14 10:11:22 51°9.624 2°39.986 19.0002 4.358962 32.131239 7.005623
2005-07-14 10:12:22 51°9.638 2°40.055 19.0074 4.356959 32.11198 6.061759
2005-07-14 10:13:22 51°9.652 2°40.123 18.9916 4.362442 32.153829 7.106751
2005-07-14 10:14:22 51°9.667 2°40.191 19.0207 4.366766 32.196629 7.17417
2005-07-14 10:15:22 51°9.681 2°40.26 19.1 4.366027 32.164029 7.511264
2005-07-14 10:16:23 51°9.697 2°40.33 19.1865 4.365921 32.089937 6.668529
2005-07-14 10:17:22 51°9.713 2°40.397 19.3095 4.365287 32.040334 7.106751
2005-07-14 10:18:22 51°9.727 2°40.466 19.3249 4.360012 31.871915 6.668529
2005-07-14 10:19:22 51°9.742 2°40.534 19.1729 4.365602 31.97793 6.769657
2005-07-14 10:20:22 51°9.762 2°40.598 19.2576 4.36128 32.008566 6.499982
2005-07-14 10:21:22 51°9.781 2°40.662 19.1921 4.357482 31.92291 6.061759
2005-07-14 10:22:21 51°9.8 2°40.726 19.1556 4.360436 32.000555 5.893212
2005-07-14 10:23:22 51°9.819 2°40.792 19.1296 4.358116 32.00833 5.219024
2005-07-14 10:24:22 51°9.837 2°40.856 19.056 4.359488 32.046436 5.825794
2005-07-14 10:25:21 51°9.855 2°40.919 19.1842 4.361387 32.086747 5.286443
2005-07-14 10:26:22 51°9.875 2°40.989 19.1974 4.358748 31.973612 6.095469
2005-07-14 10:27:22 51°9.89 2°41.082 19.1162 4.357694 31.97589 5.050477
2005-07-14 10:28:22 51°9.901 2°41.186 19.0836 4.366343 32.125291 5.825794
2005-07-14 10:29:22 51°9.913 2°41.286 19.201 4.353582 31.991915 5.994341
2005-07-14 10:30:22 51°9.912 2°41.347 19.0984 4.344512 31.867309 6.230306
2005-07-14 10:31:22 51°9.9 2°41.379 19.0776 4.349259 31.982697 6.061759
2005-07-14 10:32:22 51°9.884 2°41.391 19.076 4.340295 31.908525 6.432563
2005-07-14 10:33:22 51°9.868 2°41.392 19.0294 4.340823 31.926528 6.668529
2005-07-14 10:34:22 51°9.842 2°41.412 19.0015 4.346834 32.011587 6.702238
2005-07-14 10:35:22 51°9.847 2°41.486 19.1404 4.344409 31.975719 6.533691
2005-07-14 10:36:22 51°9.918 2°41.535 19.3565 4.334705 31.788053 6.870785
2005-07-14 10:37:22 51°10.011 2°41.589 19.1192 4.335863 31.699584 6.264016
2005-07-14 10:38:22 51°10.072 2°41.648 18.9608 4.355481 32.05029 5.825794
2005-07-14 10:39:21 51°10.113 2°41.704 18.9591 4.359701 32.167159 5.893212
2005-07-14 10:40:22 51°10.144 2°41.764 19.0399 4.355483 32.125204 6.971913
2005-07-14 10:41:22 51°10.173 2°41.818 19.2514 4.347361 31.969294 6.735947
2005-07-14 10:42:22 51°10.2 2°41.874 19.2991 4.339554 31.756206 6.331435
2005-07-14 10:43:22 51°10.225 2°41.933 19.2553 4.332911 31.694353 5.926922
2005-07-14 10:44:22 51°10.25 2°41.991 19.2872 4.335125 31.731359 5.690956
2005-07-14 10:45:22 51°10.274 2°42.047 19.3522 4.330169 31.66818 4.814512
2005-07-14 10:46:22 51°10.296 2°42.102 19.3628 4.327531 31.595553 4.848221
2005-07-14 10:47:22 51°10.317 2°42.157 19.4357 4.328059 31.594484 4.376289
2005-07-14 10:48:22 51°10.338 2°42.211 19.4671 4.317723 31.450959 4.039195
2005-07-14 10:49:21 51°10.358 2°42.265 19.4349 4.313716 31.412514 3.836939
2005-07-14 10:50:22 51°10.378 2°42.32 19.4424 4.312978 31.427282 3.735811
2005-07-14 10:51:22 51°10.4 2°42.376 19.4722 4.319727 31.463523 3.499845
2005-07-14 10:52:22 51°10.415 2°42.436 19.343 4.315192 31.416 4.039195
2005-07-14 10:53:22 51°10.427 2°42.501 19.2476 4.32479 31.615646 4.106614
2005-07-14 10:54:22 51°10.44 2°42.566 19.2623 4.330169 31.693544 3.971777
2005-07-14 10:55:22 51°10.453 2°42.63 19.2297 4.327111 31.659915 3.971777
2005-07-14 10:56:22 51°10.465 2°42.695 19.2109 4.332595 31.733925 3.80323
2005-07-14 10:57:22 51°10.482 2°42.757 19.2918 4.333122 31.749611 4.34258
2005-07-14 10:58:22 51°10.503 2°42.817 19.2487 4.330274 31.6588 4.005486
2005-07-14 10:59:22 51°10.523 2°42.879 19.1963 4.332911 31.744635 3.499845
2005-07-14 11:00:22 51°10.542 2°42.94 19.2023 4.331963 31.750954 3.735811
2005-07-14 11:01:22 51°10.561 2°42.999 19.1973 4.326584 31.70585 4.174033
2005-07-14 11:02:22 51°10.581 2°43.059 19.2164 4.320363 31.658179 3.80323
2005-07-14 11:03:22 51°10.6 2°43.118 19.2528 4.315512 31.597453 4.409999
2005-07-14 11:04:22 51°10.619 2°43.177 19.2401 4.312453 31.553078 4.005486
2005-07-14 11:05:21 51°10.637 2°43.235 19.2538 4.308868 31.534537 4.578546
2005-07-14 11:06:22 51°10.657 2°43.293 19.2881 4.305704 31.487751 3.634683
2005-07-14 11:07:22 51°10.676 2°43.352 19.2808 4.305176 31.470579 4.207742
2005-07-14 11:08:22 51°10.694 2°43.41 19.275 4.301486 31.441529 4.713383
2005-07-14 11:09:23 51°10.712 2°43.47 19.2623 4.299271 31.42881 4.275161
2005-07-14 11:10:22 51°10.725 2°43.542 19.209 4.294632 31.398433 4.780802
2005-07-14 11:11:22 51°10.733 2°43.626 19.1821 4.29516 31.461707 4.477418
2005-07-14 11:12:22 51°10.733 2°43.707 19.1944 4.295054 31.449032 4.578546
2005-07-14 11:13:22 51°10.716 2°43.758 19.127 4.292208 31.452064 4.207742
2005-07-14 11:14:22 51°10.691 2°43.783 19.1521 4.291575 31.466781 5.016768
2005-07-14 11:15:21 51°10.662 2°43.796 19.0983 4.297691 31.511464 4.983059
2005-07-14 11:16:22 51°10.638 2°43.931 19.1418 4.295372 31.535067 5.016768
2005-07-14 11:17:22 51°10.689 2°44.148 19.1724 4.294527 31.467818 4.679674
2005-07-14 11:18:22 51°10.732 2°44.403 19.0673 4.287674 31.430009 4.91564
2005-07-14 11:19:20 51°10.774 2°44.655 19.0786 4.278395 31.403479 5.185315
2005-07-14 11:20:22 51°10.815 2°44.916 19.0845 4.271646 31.353023 5.219024
2005-07-14 11:21:22 51°10.853 2°45.162 19.1385 4.26785 31.30584 5.859503
2005-07-14 11:22:21 51°10.889 2°45.403 19.1522 4.265529 31.248874 5.522409
2005-07-14 11:23:22 51°10.926 2°45.647 19.1852 4.255828 31.158387 5.623537
2005-07-14 11:24:23 51°10.961 2°45.886 19.2263 4.249923 31.088373 6.061759
2005-07-14 11:25:22 51°10.993 2°46.121 19.2498 4.244966 31.018278 6.466272
2005-07-14 11:26:22 51°11.032 2°46.354 19.2509 4.238112 30.949215 6.162888
2005-07-14 11:27:22 51°11.072 2°46.588 19.2479 4.233262 30.90654 5.657247
2005-07-14 11:28:22 51°11.104 2°46.781 19.2493 4.227146 30.861991 6.129178
2005-07-14 11:29:21 51°11.142 2°46.885 19.2486 4.226513 30.856838 6.837076
2005-07-14 11:30:22 51°11.179 2°46.963 19.2379 4.226724 30.855927 6.533691
2005-07-14 11:31:22 51°11.221 2°47.091 19.2342 4.223983 30.846741 6.533691
2005-07-14 11:32:22 51°11.267 2°47.232 19.268 4.22335 30.826349 6.668529
2005-07-14 11:33:22 51°11.307 2°47.376 19.2617 4.223982 30.817326 7.073042
2005-07-14 11:34:22 51°11.349 2°47.52 19.2348 4.22103 30.806413 7.477554
2005-07-14 11:35:22 51°11.391 2°47.661 19.2213 4.214493 30.775217 7.477554
2005-07-14 11:36:21 51°11.447 2°47.787 19.3007 4.212595 30.729898 7.17417
2005-07-14 11:37:21 51°11.5 2°47.917 19.2003 4.212278 30.709545 6.634819
2005-07-14 11:38:22 51°11.553 2°48.048 19.1664 4.20416 30.71516 5.960631
2005-07-14 11:39:22 51°11.607 2°48.18 19.1644 4.200787 30.706009 6.702238
2005-07-14 11:40:22 51°11.661 2°48.309 19.196 4.199838 30.68884 6.095469
2005-07-14 11:41:22 51°11.714 2°48.441 19.2126 4.199732 30.660767 6.061759
2005-07-14 11:42:22 51°11.768 2°48.574 19.1632 4.197834 30.657861 5.994341
2005-07-14 11:43:23 51°11.822 2°48.708 19.1482 4.193933 30.655379 5.859503
2005-07-14 11:44:21 51°11.874 2°48.835 19.2488 4.191403 30.629521 5.825794
2005-07-14 11:45:22 51°11.951 2°49.023 19.207 4.194143 30.578777 5.286443
2005-07-14 11:46:22 51°12.056 2°49.263 19.431 4.193826 30.581412 0.331161
2005-07-14 11:47:22 51°12.164 2°49.519 19.5281 4.193826 30.581412 0.39858
2005-07-14 11:48:22 51°12.27 2°49.778 19.6035 4.193826 30.580371 0.39858
2005-07-14 11:49:21 51°12.394 2°50.014 19.6757 4.194143 30.58138 0.364871
2005-07-14 11:50:22 51°12.517 2°50.26 19.7566 4.194459 30.581869 0.331161
2005-07-14 11:51:22 51°12.639 2°50.504 19.8338 4.194775 30.578193 0.364871
2005-07-14 11:52:21 51°12.748 2°50.754 19.9063 4.195302 30.575713 0.364871
2005-07-14 11:53:22 51°12.851 2°51.023 19.9788 4.196356 30.576477 0.364871
2005-07-14 11:54:22 51°12.954 2°51.292 20.0562 4.197305 30.577425 0.364871
2005-07-14 11:55:22 51°13.049 2°51.563 20.1272 4.198465 30.580606 0.331161
2005-07-14 11:56:22 51°13.15 2°51.833 20.1981 4.19973 30.583083 0.297452
2005-07-14 11:57:22 51°13.254 2°52.101 20.2669 4.201206 30.588312 0.39858
2005-07-14 11:58:22 51°13.358 2°52.371 20.3318 4.20226 30.590635 0.331161
2005-07-14 11:59:22 51°13.462 2°52.644 20.4055 4.203526 30.594669 0.364871
2005-07-14 12:00:22 51°13.565 2°52.915 20.4666 4.204791 30.597143 0.297452
2005-07-14 12:01:22 51°13.682 2°53.178 20.5364 4.206161 30.600992 0.364871
2005-07-14 12:02:22 51°13.815 2°53.413 20.6017 4.207427 30.604504 0.297452
2005-07-14 12:03:22 51°13.953 2°53.648 20.6676 4.208692 30.607496 0.331161
2005-07-14 12:04:23 51°14.092 2°53.89 20.7337 4.209957 30.609969 0.297452
2005-07-14 12:05:22 51°14.241 2°54.095 20.7948 4.211327 30.613814 0.364871
2005-07-14 12:06:22 51°14.412 2°54.27 20.8599 4.212487 30.61595 0.364871
2005-07-14 12:07:22 51°14.581 2°54.447 20.92 4.213752 30.61842 0.331161
2005-07-14 12:08:22 51°14.75 2°54.621 20.9838 4.215123 30.622264 0.364871
2005-07-14 12:09:22 51°14.918 2°54.797 21.0383 4.216283 30.623879 0.331161
2005-07-14 12:10:22 51°15.08 2°54.982 21.099 4.217653 30.627721 0.331161
2005-07-14 12:11:22 51°15.249 2°55.138 21.1566 4.219024 30.629488 0.364871
2005-07-14 12:12:22 51°15.399 2°55.314 21.2074 4.220184 30.63214 0.39858
2005-07-14 12:13:23 51°15.536 2°55.529 21.2672 4.221449 30.635126 0.499708
2005-07-14 12:14:22 51°15.649 2°55.768 21.327 4.222714 30.63863 0.432289
2005-07-14 12:15:22 51°15.77 2°56.003 21.3796 4.223874 30.640761 0.465999
2005-07-14 12:16:22 51°15.869 2°56.269 21.434 4.225139 30.6453 0.465999
2005-07-14 12:17:23 51°15.979 2°56.528 21.482 4.226404 30.64673 0.465999
2005-07-14 12:18:22 51°16.094 2°56.771 21.5362 4.227564 30.649378 0.432289
2005-07-14 12:19:22 51°16.203 2°57.032 21.587 4.228829 30.652878 0.465999
2005-07-14 12:20:23 51°16.304 2°57.301 21.6391 4.230094 30.654825 0.499708
2005-07-14 12:21:22 51°16.397 2°57.571 21.6867 4.231148 30.657137 0.39858
2005-07-14 12:22:22 51°16.483 2°57.853 21.7376 4.232519 30.660453 0.465999
2005-07-14 12:23:22 51°16.569 2°58.137 21.7929 4.233573 30.661729 0.465999
2005-07-14 12:24:23 51°16.67 2°58.414 21.8338 4.234733 30.664375 0.465999
2005-07-14 12:25:22 51°16.763 2°58.687 21.8885 4.235998 30.667871 0.432289
2005-07-14 12:26:22 51°16.859 2°58.967 21.9379 4.237263 30.67085 0.465999
2005-07-14 12:27:22 51°16.956 2°59.239 21.9756 4.238318 30.671609 0.432289
2005-07-14 12:28:22 51°17.053 2°59.513 22.0118 4.239583 30.67407 0.432289
2005-07-14 12:29:22 51°17.145 2°59.79 22.0764 4.240848 30.676531 0.465999
2005-07-14 12:30:22 51°17.243 3°0.066 22.1219 4.242008 30.67969 0.432289
2005-07-14 12:31:21 51°17.338 3°0.336 22.1595 4.243273 30.681634 0.432289
2005-07-14 12:32:22 51°17.428 3°0.614 22.2246 4.244222 30.683091 0.499708
2005-07-14 12:33:23 51°17.607 3°0.615 22.2708 4.245593 30.688982 0.432289
2005-07-14 12:34:23 51°17.624 3°0.283 22.2697 4.246752 30.688009 0.465999
2005-07-14 12:35:22 51°17.546 2°59.935 22.3183 4.248018 30.690984 0.432289
2005-07-14 12:36:22 51°17.431 2°59.586 22.3701 4.249283 30.693442 0.465999
2005-07-14 12:37:22 51°17.297 2°59.264 22.3975 4.250337 30.695232 0.465999
2005-07-14 12:38:22 51°17.157 2°58.941 22.4519 4.251602 30.697689 0.499708
2005-07-14 12:39:22 51°17.009 2°58.629 22.4911 4.252657 30.698448 0.499708
2005-07-14 12:40:22 51°16.86 2°58.308 22.513 4.254027 30.701754 0.465999
2005-07-14 12:41:22 51°16.718 2°57.986 22.5654 4.255082 30.703028 0.432289
2005-07-14 12:42:22 51°16.573 2°57.663 22.5984 4.256241 30.704635 0.499708
2005-07-14 12:43:22 51°16.425 2°57.34 22.6319 4.257612 30.707425 0.499708
2005-07-14 12:44:22 51°16.281 2°57.017 22.6777 4.258666 30.709213 0.499708
2005-07-14 12:45:22 51°16.142 2°56.697 22.7242 4.260037 30.712517 0.499708
2005-07-14 12:46:23 51°15.993 2°56.377 22.7512 4.260986 30.713457 0.465999
2005-07-14 12:47:22 51°15.846 2°56.078 22.7685 4.262146 30.717122 0.499708
2005-07-14 12:48:22 51°15.694 2°55.78 22.7997 4.2632 30.718395 0.499708
2005-07-14 12:49:22 51°15.533 2°55.499 22.8125 4.264465 30.720849 0.499708
2005-07-14 12:50:22 51°15.403 2°55.179 22.8577 4.26552 30.723665 0.465999
2005-07-14 12:51:23 51°15.257 2°54.883 22.9055 4.266468 30.726148 0.499708
2005-07-14 12:52:23 51°15.041 2°54.765 22.9286 4.267628 30.729296 0.499708
2005-07-14 12:53:22 51°14.815 2°54.785 22.9711 4.268577 30.728692 0.499708
2005-07-14 12:54:21 51°14.597 2°54.821 23.0124 4.269737 30.732354 0.465999
2005-07-14 12:55:22 51°14.42 2°54.981 23.0257 4.27058 30.733474 0.465999
2005-07-14 12:56:23 51°14.295 2°55.216 23.0663 4.271846 30.736439 0.465999
2005-07-14 12:57:23 51°14.196 2°55.36 23.1024 4.272689 30.737559 0.465999
2005-07-14 12:58:23 51°14.086 2°55.447 23.127 4.273743 30.738831 0.465999
2005-07-14 12:59:23 51°13.981 2°55.521 23.1525 4.274798 30.74113 0.465999
2005-07-14 13:00:22 51°13.886 2°55.591 23.1824 4.275641 30.741736 0.499708
2005-07-14 13:01:23 51°13.797 2°55.666 23.2226 4.276801 30.744367 0.465999
2005-07-14 13:02:22 51°13.748 2°55.753 23.245 4.27775 30.745819 0.465999
2005-07-14 13:03:22 51°13.726 2°55.817 23.3013 4.278804 30.747604 0.499708
2005-07-14 13:04:22 51°13.708 2°55.863 23.3116 4.279753 30.749569 0.499708
2005-07-14 13:05:22 51°13.706 2°55.868 23.3745 4.280808 30.750327 0.465999